General Aviation Weather

Text Reports

Enter one or more of the following location identifiers separated by a space:

Zip Code, Four-Character ICAO or Three-Character IATA airport codes.

METAR - Aviation Routine Weather Report
KLLJ - Challis, Idaho
Updated at 12:55 PM GMT on April 17, 2014 (6:55 AM MDT):
METAR KLLJ 171255Z AUTO 00000KT 10SM CLR M03/M08 A3000 RMK AO2 SLP158 T10281083
TAF - Terminal Area Forecast
KLLJ - Challis, Idaho
Updated at 12:55 PM GMT on April 17, 2014 (6:55 AM MDT):
No TAF is currently available for this location.
Decoded:
No decoded TAF is available.
PIREP - Pilot Weather Report
KLLJ - Challis, Idaho
Updated at 12:55 PM GMT on April 17, 2014 (6:55 AM MDT):
No PIREP is currently available for this location.
AIRMET - Airmens Meteorological Information
KLLJ - Challis, Idaho
Updated at 12:55 PM GMT on April 17, 2014 (6:55 AM MDT):
No AIRMET is currently available for this location.
SIGMET - Significant Meteorological Information
KLLJ - Challis, Idaho
Updated at 12:55 PM GMT on April 17, 2014 (6:55 AM MDT):
No SIGMET is currently available for this location.
NOTAM - Notice to Airmen
KLLJ - Challis, Idaho
Updated at 12:55 PM GMT on April 17, 2014 (6:55 AM MDT):
No NOTAM is currently available for this location.
Forecast Area
KLLJ - Challis, Idaho
Updated at 12:55 PM GMT on April 17, 2014 (6:55 AM MDT):
No NOTAM is currently available for this location.
Aviation Weather Maps